sensor_id;sensor_type;location;lat;lon;timestamp;P1;durP1;ratioP1;P2;durP2;ratioP2
25531;SDS011;13429;48.816;9.118;2023-09-30T00:01:20;7.25;;;2.83;;
25531;SDS011;13429;48.816;9.118;2023-09-30T00:03:47;7.60;;;2.83;;
25531;SDS011;13429;48.816;9.118;2023-09-30T00:06:13;5.70;;;3.00;;
25531;SDS011;13429;48.816;9.118;2023-09-30T00:08:39;9.07;;;3.20;;
25531;SDS011;13429;48.816;9.118;2023-09-30T00:11:07;8.00;;;3.50;;
25531;SDS011;13429;48.816;9.118;2023-09-30T00:13:33;6.78;;;2.63;;
25531;SDS011;13429;48.816;9.118;2023-09-30T00:15:59;6.85;;;2.97;;
25531;SDS011;13429;48.816;9.118;2023-09-30T00:18:25;9.15;;;2.85;;
25531;SDS011;13429;48.816;9.118;2023-09-30T00:20:52;4.05;;;2.17;;
25531;SDS011;13429;48.816;9.118;2023-09-30T00:23:18;4.88;;;1.90;;
25531;SDS011;13429;48.816;9.118;2023-09-30T00:25:46;4.55;;;2.33;;
25531;SDS011;13429;48.816;9.118;2023-09-30T00:28:14;7.53;;;3.10;;
25531;SDS011;13429;48.816;9.118;2023-09-30T00:30:40;4.68;;;2.22;;
25531;SDS011;13429;48.816;9.118;2023-09-30T00:33:06;4.78;;;1.75;;
25531;SDS011;13429;48.816;9.118;2023-09-30T00:35:33;5.50;;;2.40;;
25531;SDS011;13429;48.816;9.118;2023-09-30T00:37:59;5.68;;;2.25;;
25531;SDS011;13429;48.816;9.118;2023-09-30T00:40:25;4.00;;;2.03;;
25531;SDS011;13429;48.816;9.118;2023-09-30T00:42:51;5.03;;;1.70;;
25531;SDS011;13429;48.816;9.118;2023-09-30T00:45:17;4.13;;;1.38;;
25531;SDS011;13429;48.816;9.118;2023-09-30T00:47:43;5.97;;;2.63;;
25531;SDS011;13429;48.816;9.118;2023-09-30T00:50:09;3.65;;;2.17;;
25531;SDS011;13429;48.816;9.118;2023-09-30T00:52:37;5.97;;;1.92;;
25531;SDS011;13429;48.816;9.118;2023-09-30T00:55:04;3.22;;;1.50;;
25531;SDS011;13429;48.816;9.118;2023-09-30T00:57:31;3.83;;;1.92;;
25531;SDS011;13429;48.816;9.118;2023-09-30T00:59:57;6.78;;;2.10;;
25531;SDS011;13429;48.816;9.118;2023-09-30T01:02:24;2.67;;;1.42;;
25531;SDS011;13429;48.816;9.118;2023-09-30T01:04:50;3.22;;;1.30;;
25531;SDS011;13429;48.816;9.118;2023-09-30T01:07:16;3.60;;;1.50;;
25531;SDS011;13429;48.816;9.118;2023-09-30T01:09:42;4.18;;;1.90;;
25531;SDS011;13429;48.816;9.118;2023-09-30T01:12:08;4.55;;;1.63;;
25531;SDS011;13429;48.816;9.118;2023-09-30T01:14:35;3.47;;;1.58;;
25531;SDS011;13429;48.816;9.118;2023-09-30T01:17:05;4.28;;;1.83;;
25531;SDS011;13429;48.816;9.118;2023-09-30T01:22:02;3.13;;;1.60;;
25531;SDS011;13429;48.816;9.118;2023-09-30T01:24:29;7.47;;;2.03;;
25531;SDS011;13429;48.816;9.118;2023-09-30T01:26:55;3.42;;;1.90;;
25531;SDS011;13429;48.816;9.118;2023-09-30T01:29:22;4.57;;;1.58;;
25531;SDS011;13429;48.816;9.118;2023-09-30T01:31:51;2.88;;;1.50;;
25531;SDS011;13429;48.816;9.118;2023-09-30T01:34:17;5.60;;;2.10;;
25531;SDS011;13429;48.816;9.118;2023-09-30T01:36:43;3.85;;;1.75;;
25531;SDS011;13429;48.816;9.118;2023-09-30T01:39:10;4.55;;;2.00;;
25531;SDS011;13429;48.816;9.118;2023-09-30T01:41:37;5.50;;;1.50;;
25531;SDS011;13429;48.816;9.118;2023-09-30T01:44:03;4.40;;;2.20;;
25531;SDS011;13429;48.816;9.118;2023-09-30T01:46:30;3.88;;;2.15;;
25531;SDS011;13429;48.816;9.118;2023-09-30T01:48:56;3.65;;;2.08;;
25531;SDS011;13429;48.816;9.118;2023-09-30T01:51:22;3.65;;;2.00;;
25531;SDS011;13429;48.816;9.118;2023-09-30T01:53:48;4.70;;;2.13;;
25531;SDS011;13429;48.816;9.118;2023-09-30T01:56:14;6.47;;;2.60;;
25531;SDS011;13429;48.816;9.118;2023-09-30T01:58:41;3.58;;;2.10;;
25531;SDS011;13429;48.816;9.118;2023-09-30T02:01:07;5.32;;;2.50;;
25531;SDS011;13429;48.816;9.118;2023-09-30T02:03:33;3.95;;;1.92;;
25531;SDS011;13429;48.816;9.118;2023-09-30T02:05:59;5.72;;;2.58;;
25531;SDS011;13429;48.816;9.118;2023-09-30T02:08:25;4.63;;;2.67;;
25531;SDS011;13429;48.816;9.118;2023-09-30T02:10:51;8.77;;;2.92;;
25531;SDS011;13429;48.816;9.118;2023-09-30T02:13:17;6.20;;;3.13;;
25531;SDS011;13429;48.816;9.118;2023-09-30T02:15:43;7.78;;;2.97;;
25531;SDS011;13429;48.816;9.118;2023-09-30T02:18:10;6.30;;;2.80;;
25531;SDS011;13429;48.816;9.118;2023-09-30T02:20:36;6.85;;;3.42;;
25531;SDS011;13429;48.816;9.118;2023-09-30T02:23:05;4.70;;;2.95;;
25531;SDS011;13429;48.816;9.118;2023-09-30T02:25:31;7.28;;;3.20;;
25531;SDS011;13429;48.816;9.118;2023-09-30T02:27:58;5.07;;;3.00;;
25531;SDS011;13429;48.816;9.118;2023-09-30T02:30:25;6.63;;;3.40;;
25531;SDS011;13429;48.816;9.118;2023-09-30T02:32:52;6.88;;;4.05;;
25531;SDS011;13429;48.816;9.118;2023-09-30T02:35:18;7.65;;;3.67;;
25531;SDS011;13429;48.816;9.118;2023-09-30T02:37:45;7.60;;;3.95;;
25531;SDS011;13429;48.816;9.118;2023-09-30T02:40:11;8.75;;;3.72;;
25531;SDS011;13429;48.816;9.118;2023-09-30T02:42:40;8.70;;;4.28;;
25531;SDS011;13429;48.816;9.118;2023-09-30T02:45:06;8.38;;;3.60;;
25531;SDS011;13429;48.816;9.118;2023-09-30T02:47:33;14.55;;;4.20;;
25531;SDS011;13429;48.816;9.118;2023-09-30T02:49:59;6.78;;;3.15;;
25531;SDS011;13429;48.816;9.118;2023-09-30T02:52:26;6.22;;;3.08;;
25531;SDS011;13429;48.816;9.118;2023-09-30T02:54:53;6.10;;;3.20;;
25531;SDS011;13429;48.816;9.118;2023-09-30T02:57:19;9.18;;;3.95;;
25531;SDS011;13429;48.816;9.118;2023-09-30T02:59:46;8.77;;;3.28;;
25531;SDS011;13429;48.816;9.118;2023-09-30T03:02:12;8.55;;;3.30;;
25531;SDS011;13429;48.816;9.118;2023-09-30T03:04:40;7.63;;;3.55;;
25531;SDS011;13429;48.816;9.118;2023-09-30T03:07:07;7.85;;;3.40;;
25531;SDS011;13429;48.816;9.118;2023-09-30T03:09:34;7.70;;;3.00;;
25531;SDS011;13429;48.816;9.118;2023-09-30T03:12:01;5.93;;;3.55;;
25531;SDS011;13429;48.816;9.118;2023-09-30T03:14:27;7.28;;;3.08;;
25531;SDS011;13429;48.816;9.118;2023-09-30T03:16:56;6.95;;;3.28;;
25531;SDS011;13429;48.816;9.118;2023-09-30T03:19:22;5.45;;;3.40;;
25531;SDS011;13429;48.816;9.118;2023-09-30T03:21:48;11.25;;;3.78;;
25531;SDS011;13429;48.816;9.118;2023-09-30T03:24:14;7.38;;;3.42;;
25531;SDS011;13429;48.816;9.118;2023-09-30T03:26:40;5.28;;;2.97;;
25531;SDS011;13429;48.816;9.118;2023-09-30T03:29:06;7.68;;;3.33;;
25531;SDS011;13429;48.816;9.118;2023-09-30T03:31:34;5.55;;;2.53;;
25531;SDS011;13429;48.816;9.118;2023-09-30T03:34:00;7.53;;;2.67;;
25531;SDS011;13429;48.816;9.118;2023-09-30T03:36:26;7.95;;;3.03;;
25531;SDS011;13429;48.816;9.118;2023-09-30T03:38:53;5.78;;;2.60;;
25531;SDS011;13429;48.816;9.118;2023-09-30T03:41:19;7.38;;;2.53;;
25531;SDS011;13429;48.816;9.118;2023-09-30T03:43:45;5.78;;;2.95;;
25531;SDS011;13429;48.816;9.118;2023-09-30T03:46:14;5.63;;;2.60;;
25531;SDS011;13429;48.816;9.118;2023-09-30T03:48:40;5.57;;;3.08;;
25531;SDS011;13429;48.816;9.118;2023-09-30T03:51:11;4.38;;;2.50;;
25531;SDS011;13429;48.816;9.118;2023-09-30T03:56:07;7.03;;;3.15;;
25531;SDS011;13429;48.816;9.118;2023-09-30T03:58:33;6.45;;;3.72;;
25531;SDS011;13429;48.816;9.118;2023-09-30T04:00:59;6.50;;;3.30;;
25531;SDS011;13429;48.816;9.118;2023-09-30T04:03:25;5.32;;;2.78;;
25531;SDS011;13429;48.816;9.118;2023-09-30T04:05:54;5.18;;;2.90;;
25531;SDS011;13429;48.816;9.118;2023-09-30T04:08:21;6.97;;;3.10;;
25531;SDS011;13429;48.816;9.118;2023-09-30T04:10:47;8.30;;;3.10;;
25531;SDS011;13429;48.816;9.118;2023-09-30T04:13:14;5.97;;;2.63;;
25531;SDS011;13429;48.816;9.118;2023-09-30T04:15:40;5.10;;;2.45;;
25531;SDS011;13429;48.816;9.118;2023-09-30T04:18:06;4.72;;;2.78;;
25531;SDS011;13429;48.816;9.118;2023-09-30T04:20:32;4.65;;;2.80;;
25531;SDS011;13429;48.816;9.118;2023-09-30T04:22:58;6.20;;;2.95;;
25531;SDS011;13429;48.816;9.118;2023-09-30T04:25:24;5.10;;;2.90;;
25531;SDS011;13429;48.816;9.118;2023-09-30T04:27:51;9.10;;;4.07;;
25531;SDS011;13429;48.816;9.118;2023-09-30T04:30:17;11.85;;;3.10;;
25531;SDS011;13429;48.816;9.118;2023-09-30T04:32:43;10.02;;;3.67;;
25531;SDS011;13429;48.816;9.118;2023-09-30T04:35:10;10.35;;;3.70;;
25531;SDS011;13429;48.816;9.118;2023-09-30T04:37:37;7.60;;;3.45;;
25531;SDS011;13429;48.816;9.118;2023-09-30T04:40:04;8.02;;;4.22;;
25531;SDS011;13429;48.816;9.118;2023-09-30T04:42:40;5.60;;;3.47;;
25531;SDS011;13429;48.816;9.118;2023-09-30T04:45:06;5.97;;;3.17;;
25531;SDS011;13429;48.816;9.118;2023-09-30T04:47:32;14.38;;;3.13;;
25531;SDS011;13429;48.816;9.118;2023-09-30T04:49:59;11.00;;;3.75;;
25531;SDS011;13429;48.816;9.118;2023-09-30T04:52:29;10.52;;;3.40;;
25531;SDS011;13429;48.816;9.118;2023-09-30T04:54:56;6.07;;;3.03;;
25531;SDS011;13429;48.816;9.118;2023-09-30T04:57:22;10.07;;;3.22;;
25531;SDS011;13429;48.816;9.118;2023-09-30T04:59:48;5.47;;;2.63;;
25531;SDS011;13429;48.816;9.118;2023-09-30T05:02:14;8.55;;;3.47;;
25531;SDS011;13429;48.816;9.118;2023-09-30T05:04:40;5.90;;;3.08;;
25531;SDS011;13429;48.816;9.118;2023-09-30T05:07:07;6.35;;;3.10;;
25531;SDS011;13429;48.816;9.118;2023-09-30T05:09:33;6.05;;;2.88;;
25531;SDS011;13429;48.816;9.118;2023-09-30T05:11:59;4.80;;;2.30;;
25531;SDS011;13429;48.816;9.118;2023-09-30T05:14:25;6.32;;;2.75;;
25531;SDS011;13429;48.816;9.118;2023-09-30T05:16:54;7.00;;;2.70;;
25531;SDS011;13429;48.816;9.118;2023-09-30T05:19:21;10.00;;;3.38;;
25531;SDS011;13429;48.816;9.118;2023-09-30T05:21:47;5.55;;;2.95;;
25531;SDS011;13429;48.816;9.118;2023-09-30T05:24:14;7.97;;;3.28;;
25531;SDS011;13429;48.816;9.118;2023-09-30T05:26:40;7.32;;;2.88;;
25531;SDS011;13429;48.816;9.118;2023-09-30T05:29:06;7.43;;;2.88;;
25531;SDS011;13429;48.816;9.118;2023-09-30T05:31:32;5.53;;;2.70;;
25531;SDS011;13429;48.816;9.118;2023-09-30T05:33:58;7.40;;;2.83;;
25531;SDS011;13429;48.816;9.118;2023-09-30T05:36:24;10.73;;;3.53;;
25531;SDS011;13429;48.816;9.118;2023-09-30T05:38:50;9.38;;;3.15;;
25531;SDS011;13429;48.816;9.118;2023-09-30T05:41:16;5.22;;;2.80;;
25531;SDS011;13429;48.816;9.118;2023-09-30T05:43:45;7.97;;;2.95;;
25531;SDS011;13429;48.816;9.118;2023-09-30T05:46:12;7.05;;;3.13;;
25531;SDS011;13429;48.816;9.118;2023-09-30T05:48:38;7.13;;;2.97;;
25531;SDS011;13429;48.816;9.118;2023-09-30T05:51:04;7.20;;;2.95;;
25531;SDS011;13429;48.816;9.118;2023-09-30T05:53:31;8.10;;;3.58;;
25531;SDS011;13429;48.816;9.118;2023-09-30T05:55:58;11.18;;;3.50;;
25531;SDS011;13429;48.816;9.118;2023-09-30T05:58:25;9.57;;;3.58;;
25531;SDS011;13429;48.816;9.118;2023-09-30T06:00:54;5.60;;;3.67;;
25531;SDS011;13429;48.816;9.118;2023-09-30T06:03:20;6.00;;;3.40;;
25531;SDS011;13429;48.816;9.118;2023-09-30T06:05:49;6.78;;;3.10;;
25531;SDS011;13429;48.816;9.118;2023-09-30T06:08:15;8.38;;;3.50;;
25531;SDS011;13429;48.816;9.118;2023-09-30T06:10:41;6.90;;;3.35;;
25531;SDS011;13429;48.816;9.118;2023-09-30T06:13:08;8.10;;;3.42;;
25531;SDS011;13429;48.816;9.118;2023-09-30T06:15:38;10.32;;;3.42;;
25531;SDS011;13429;48.816;9.118;2023-09-30T06:18:05;9.93;;;4.07;;
25531;SDS011;13429;48.816;9.118;2023-09-30T06:20:33;7.53;;;4.20;;
25531;SDS011;13429;48.816;9.118;2023-09-30T06:22:59;6.28;;;3.47;;
25531;SDS011;13429;48.816;9.118;2023-09-30T06:25:26;7.60;;;4.47;;
25531;SDS011;13429;48.816;9.118;2023-09-30T06:27:52;10.75;;;4.30;;
25531;SDS011;13429;48.816;9.118;2023-09-30T06:30:22;9.48;;;3.95;;
25531;SDS011;13429;48.816;9.118;2023-09-30T06:32:54;11.43;;;4.20;;
25531;SDS011;13429;48.816;9.118;2023-09-30T06:35:20;10.82;;;4.43;;
25531;SDS011;13429;48.816;9.118;2023-09-30T06:37:48;12.65;;;4.32;;
25531;SDS011;13429;48.816;9.118;2023-09-30T06:40:14;10.95;;;4.68;;
25531;SDS011;13429;48.816;9.118;2023-09-30T06:42:40;7.72;;;3.58;;
25531;SDS011;13429;48.816;9.118;2023-09-30T06:45:07;12.32;;;4.72;;
25531;SDS011;13429;48.816;9.118;2023-09-30T06:47:35;6.15;;;3.72;;
25531;SDS011;13429;48.816;9.118;2023-09-30T06:50:02;7.72;;;4.10;;
25531;SDS011;13429;48.816;9.118;2023-09-30T06:52:33;12.75;;;4.38;;
25531;SDS011;13429;48.816;9.118;2023-09-30T06:54:59;9.73;;;4.28;;
25531;SDS011;13429;48.816;9.118;2023-09-30T06:57:25;10.60;;;3.97;;
25531;SDS011;13429;48.816;9.118;2023-09-30T06:59:51;9.50;;;4.32;;
25531;SDS011;13429;48.816;9.118;2023-09-30T07:02:17;5.60;;;3.88;;
25531;SDS011;13429;48.816;9.118;2023-09-30T07:04:43;12.50;;;4.40;;
25531;SDS011;13429;48.816;9.118;2023-09-30T07:07:09;10.52;;;5.28;;
25531;SDS011;13429;48.816;9.118;2023-09-30T07:09:35;10.00;;;4.78;;
25531;SDS011;13429;48.816;9.118;2023-09-30T07:12:01;13.15;;;5.45;;
25531;SDS011;13429;48.816;9.118;2023-09-30T07:14:27;12.23;;;4.78;;
25531;SDS011;13429;48.816;9.118;2023-09-30T07:16:53;13.73;;;5.72;;
25531;SDS011;13429;48.816;9.118;2023-09-30T07:19:19;7.55;;;4.45;;
25531;SDS011;13429;48.816;9.118;2023-09-30T07:21:45;8.38;;;4.13;;
25531;SDS011;13429;48.816;9.118;2023-09-30T07:24:11;10.52;;;4.95;;
25531;SDS011;13429;48.816;9.118;2023-09-30T07:26:37;9.55;;;5.00;;
25531;SDS011;13429;48.816;9.118;2023-09-30T07:29:04;10.60;;;6.00;;
25531;SDS011;13429;48.816;9.118;2023-09-30T07:31:33;11.32;;;4.70;;
25531;SDS011;13429;48.816;9.118;2023-09-30T07:33:59;13.43;;;5.43;;
25531;SDS011;13429;48.816;9.118;2023-09-30T07:36:26;12.70;;;6.10;;
25531;SDS011;13429;48.816;9.118;2023-09-30T07:38:52;11.05;;;5.03;;
25531;SDS011;13429;48.816;9.118;2023-09-30T07:41:18;11.80;;;5.45;;
25531;SDS011;13429;48.816;9.118;2023-09-30T07:43:44;12.75;;;4.50;;
25531;SDS011;13429;48.816;9.118;2023-09-30T07:46:10;11.38;;;5.85;;
25531;SDS011;13429;48.816;9.118;2023-09-30T07:48:36;14.70;;;5.68;;
25531;SDS011;13429;48.816;9.118;2023-09-30T07:51:04;11.52;;;5.22;;
25531;SDS011;13429;48.816;9.118;2023-09-30T07:53:31;13.70;;;4.90;;
25531;SDS011;13429;48.816;9.118;2023-09-30T07:55:57;9.32;;;4.03;;
25531;SDS011;13429;48.816;9.118;2023-09-30T07:58:23;9.32;;;4.53;;
25531;SDS011;13429;48.816;9.118;2023-09-30T08:00:50;10.93;;;4.40;;
25531;SDS011;13429;48.816;9.118;2023-09-30T08:03:16;10.88;;;4.70;;
25531;SDS011;13429;48.816;9.118;2023-09-30T08:05:42;12.35;;;4.85;;
25531;SDS011;13429;48.816;9.118;2023-09-30T08:08:08;8.75;;;4.20;;
25531;SDS011;13429;48.816;9.118;2023-09-30T08:10:34;6.10;;;3.80;;
25531;SDS011;13429;48.816;9.118;2023-09-30T08:13:01;7.13;;;3.30;;
25531;SDS011;13429;48.816;9.118;2023-09-30T08:15:27;12.52;;;4.32;;
25531;SDS011;13429;48.816;9.118;2023-09-30T08:17:53;9.25;;;3.35;;
25531;SDS011;13429;48.816;9.118;2023-09-30T08:20:19;9.63;;;4.40;;
25531;SDS011;13429;48.816;9.118;2023-09-30T08:22:45;5.88;;;3.30;;
25531;SDS011;13429;48.816;9.118;2023-09-30T08:25:12;10.52;;;3.92;;
25531;SDS011;13429;48.816;9.118;2023-09-30T08:27:38;7.40;;;3.30;;
25531;SDS011;13429;48.816;9.118;2023-09-30T08:30:04;8.07;;;4.22;;
25531;SDS011;13429;48.816;9.118;2023-09-30T08:32:37;11.98;;;4.03;;
25531;SDS011;13429;48.816;9.118;2023-09-30T08:35:03;6.78;;;3.30;;
25531;SDS011;13429;48.816;9.118;2023-09-30T08:37:29;13.57;;;4.20;;
25531;SDS011;13429;48.816;9.118;2023-09-30T08:39:56;10.82;;;4.32;;
25531;SDS011;13429;48.816;9.118;2023-09-30T08:42:22;16.42;;;4.07;;
25531;SDS011;13429;48.816;9.118;2023-09-30T08:44:54;8.70;;;4.55;;
25531;SDS011;13429;48.816;9.118;2023-09-30T08:47:20;10.43;;;4.05;;
25531;SDS011;13429;48.816;9.118;2023-09-30T08:49:48;7.28;;;3.45;;
25531;SDS011;13429;48.816;9.118;2023-09-30T08:52:14;8.07;;;3.70;;
25531;SDS011;13429;48.816;9.118;2023-09-30T08:54:40;6.07;;;3.30;;
25531;SDS011;13429;48.816;9.118;2023-09-30T08:57:07;6.38;;;3.33;;
25531;SDS011;13429;48.816;9.118;2023-09-30T08:59:35;11.68;;;4.25;;
25531;SDS011;13429;48.816;9.118;2023-09-30T09:02:01;7.78;;;3.00;;
25531;SDS011;13429;48.816;9.118;2023-09-30T09:04:28;7.55;;;4.05;;
25531;SDS011;13429;48.816;9.118;2023-09-30T09:06:56;7.95;;;3.47;;
25531;SDS011;13429;48.816;9.118;2023-09-30T09:09:22;9.82;;;2.95;;
25531;SDS011;13429;48.816;9.118;2023-09-30T09:11:50;8.07;;;2.95;;
25531;SDS011;13429;48.816;9.118;2023-09-30T09:14:16;5.47;;;3.70;;
25531;SDS011;13429;48.816;9.118;2023-09-30T09:16:54;7.47;;;3.00;;
25531;SDS011;13429;48.816;9.118;2023-09-30T09:19:21;8.48;;;3.05;;
25531;SDS011;13429;48.816;9.118;2023-09-30T09:22:00;6.13;;;2.75;;
25531;SDS011;13429;48.816;9.118;2023-09-30T09:24:33;7.75;;;3.40;;
25531;SDS011;13429;48.816;9.118;2023-09-30T09:27:06;6.20;;;2.67;;
25531;SDS011;13429;48.816;9.118;2023-09-30T09:29:32;5.18;;;2.80;;
25531;SDS011;13429;48.816;9.118;2023-09-30T09:32:15;4.50;;;2.92;;
25531;SDS011;13429;48.816;9.118;2023-09-30T09:34:41;6.07;;;3.28;;
25531;SDS011;13429;48.816;9.118;2023-09-30T09:37:18;6.55;;;2.60;;
25531;SDS011;13429;48.816;9.118;2023-09-30T09:45:04;7.03;;;2.00;;
25531;SDS011;13429;48.816;9.118;2023-09-30T09:47:31;4.47;;;2.40;;
25531;SDS011;13429;48.816;9.118;2023-09-30T09:49:57;5.43;;;2.42;;
25531;SDS011;13429;48.816;9.118;2023-09-30T09:52:25;5.32;;;2.97;;
25531;SDS011;13429;48.816;9.118;2023-09-30T09:54:51;5.97;;;2.63;;
25531;SDS011;13429;48.816;9.118;2023-09-30T09:57:18;7.60;;;4.18;;
25531;SDS011;13429;48.816;9.118;2023-09-30T09:59:44;10.38;;;3.30;;
25531;SDS011;13429;48.816;9.118;2023-09-30T10:02:15;7.63;;;3.17;;
25531;SDS011;13429;48.816;9.118;2023-09-30T10:04:42;6.72;;;3.40;;
25531;SDS011;13429;48.816;9.118;2023-09-30T10:07:10;8.73;;;3.47;;
25531;SDS011;13429;48.816;9.118;2023-09-30T10:09:36;5.28;;;2.35;;
25531;SDS011;13429;48.816;9.118;2023-09-30T10:12:03;9.20;;;3.22;;
25531;SDS011;13429;48.816;9.118;2023-09-30T10:14:30;8.85;;;3.22;;
25531;SDS011;13429;48.816;9.118;2023-09-30T10:17:01;7.25;;;3.33;;
25531;SDS011;13429;48.816;9.118;2023-09-30T10:19:28;10.90;;;3.70;;
25531;SDS011;13429;48.816;9.118;2023-09-30T10:24:45;7.85;;;3.30;;
25531;SDS011;13429;48.816;9.118;2023-09-30T10:29:56;9.27;;;2.95;;
25531;SDS011;13429;48.816;9.118;2023-09-30T10:32:26;6.68;;;3.00;;
25531;SDS011;13429;48.816;9.118;2023-09-30T10:35:09;6.63;;;2.72;;
25531;SDS011;13429;48.816;9.118;2023-09-30T10:37:36;8.48;;;3.42;;
25531;SDS011;13429;48.816;9.118;2023-09-30T10:40:02;7.15;;;3.10;;
25531;SDS011;13429;48.816;9.118;2023-09-30T10:42:48;6.53;;;2.85;;
25531;SDS011;13429;48.816;9.118;2023-09-30T10:48:20;9.05;;;3.50;;
25531;SDS011;13429;48.816;9.118;2023-09-30T10:50:49;6.28;;;2.88;;
25531;SDS011;13429;48.816;9.118;2023-09-30T10:53:15;3.85;;;2.40;;
25531;SDS011;13429;48.816;9.118;2023-09-30T10:55:46;4.15;;;2.58;;
25531;SDS011;13429;48.816;9.118;2023-09-30T10:58:13;6.57;;;3.20;;
25531;SDS011;13429;48.816;9.118;2023-09-30T11:00:39;6.13;;;3.25;;
25531;SDS011;13429;48.816;9.118;2023-09-30T11:03:10;6.57;;;2.95;;
25531;SDS011;13429;48.816;9.118;2023-09-30T11:05:37;12.35;;;2.97;;
25531;SDS011;13429;48.816;9.118;2023-09-30T11:08:03;7.10;;;3.28;;
25531;SDS011;13429;48.816;9.118;2023-09-30T11:10:30;6.10;;;3.00;;
25531;SDS011;13429;48.816;9.118;2023-09-30T11:12:57;10.20;;;3.90;;
25531;SDS011;13429;48.816;9.118;2023-09-30T11:15:24;7.30;;;3.35;;
25531;SDS011;13429;48.816;9.118;2023-09-30T11:17:53;10.10;;;3.50;;
25531;SDS011;13429;48.816;9.118;2023-09-30T11:20:20;8.18;;;3.55;;
25531;SDS011;13429;48.816;9.118;2023-09-30T11:22:46;5.65;;;3.08;;
25531;SDS011;13429;48.816;9.118;2023-09-30T11:25:17;9.75;;;3.92;;
25531;SDS011;13429;48.816;9.118;2023-09-30T11:27:44;7.18;;;3.22;;
25531;SDS011;13429;48.816;9.118;2023-09-30T11:30:10;8.93;;;4.00;;
25531;SDS011;13429;48.816;9.118;2023-09-30T11:32:37;7.35;;;3.33;;
25531;SDS011;13429;48.816;9.118;2023-09-30T11:35:08;8.27;;;3.28;;
25531;SDS011;13429;48.816;9.118;2023-09-30T11:37:34;8.23;;;3.67;;
25531;SDS011;13429;48.816;9.118;2023-09-30T11:40:13;7.82;;;3.67;;
25531;SDS011;13429;48.816;9.118;2023-09-30T11:42:39;8.75;;;3.78;;
25531;SDS011;13429;48.816;9.118;2023-09-30T11:45:18;9.40;;;3.72;;
25531;SDS011;13429;48.816;9.118;2023-09-30T11:47:45;9.43;;;3.38;;
25531;SDS011;13429;48.816;9.118;2023-09-30T11:50:13;9.68;;;3.88;;
25531;SDS011;13429;48.816;9.118;2023-09-30T11:52:39;11.18;;;3.65;;
25531;SDS011;13429;48.816;9.118;2023-09-30T11:55:11;7.97;;;3.78;;
25531;SDS011;13429;48.816;9.118;2023-09-30T11:57:37;9.55;;;3.97;;
25531;SDS011;13429;48.816;9.118;2023-09-30T12:00:04;9.93;;;4.00;;
25531;SDS011;13429;48.816;9.118;2023-09-30T12:02:38;9.00;;;3.60;;
25531;SDS011;13429;48.816;9.118;2023-09-30T12:05:05;13.77;;;4.78;;
25531;SDS011;13429;48.816;9.118;2023-09-30T12:07:36;11.38;;;4.57;;
25531;SDS011;13429;48.816;9.118;2023-09-30T12:10:02;8.35;;;3.72;;
25531;SDS011;13429;48.816;9.118;2023-09-30T12:12:28;9.57;;;4.40;;
25531;SDS011;13429;48.816;9.118;2023-09-30T12:14:54;8.35;;;3.83;;
25531;SDS011;13429;48.816;9.118;2023-09-30T12:17:21;11.95;;;4.25;;
25531;SDS011;13429;48.816;9.118;2023-09-30T12:19:47;9.25;;;4.03;;
25531;SDS011;13429;48.816;9.118;2023-09-30T12:22:13;8.25;;;3.83;;
25531;SDS011;13429;48.816;9.118;2023-09-30T12:24:39;10.05;;;4.97;;
25531;SDS011;13429;48.816;9.118;2023-09-30T12:27:05;10.38;;;4.28;;
25531;SDS011;13429;48.816;9.118;2023-09-30T12:29:31;8.13;;;3.67;;
25531;SDS011;13429;48.816;9.118;2023-09-30T12:31:57;5.88;;;2.85;;
25531;SDS011;13429;48.816;9.118;2023-09-30T12:34:23;9.35;;;4.43;;
25531;SDS011;13429;48.816;9.118;2023-09-30T12:36:51;7.28;;;3.53;;
25531;SDS011;13429;48.816;9.118;2023-09-30T12:39:17;8.63;;;3.80;;
25531;SDS011;13429;48.816;9.118;2023-09-30T12:41:48;10.98;;;4.60;;
25531;SDS011;13429;48.816;9.118;2023-09-30T12:44:15;13.18;;;3.90;;
25531;SDS011;13429;48.816;9.118;2023-09-30T12:46:42;12.60;;;4.28;;
25531;SDS011;13429;48.816;9.118;2023-09-30T12:49:08;8.75;;;3.97;;
25531;SDS011;13429;48.816;9.118;2023-09-30T12:51:35;10.82;;;4.10;;
25531;SDS011;13429;48.816;9.118;2023-09-30T12:54:04;8.50;;;3.28;;
25531;SDS011;13429;48.816;9.118;2023-09-30T12:56:30;8.63;;;3.72;;
25531;SDS011;13429;48.816;9.118;2023-09-30T12:58:57;7.97;;;3.90;;
25531;SDS011;13429;48.816;9.118;2023-09-30T13:01:24;13.25;;;4.93;;
25531;SDS011;13429;48.816;9.118;2023-09-30T13:03:50;9.73;;;4.45;;
25531;SDS011;13429;48.816;9.118;2023-09-30T13:06:16;9.05;;;4.35;;
25531;SDS011;13429;48.816;9.118;2023-09-30T13:08:43;9.30;;;4.13;;
25531;SDS011;13429;48.816;9.118;2023-09-30T13:11:09;7.70;;;3.88;;
25531;SDS011;13429;48.816;9.118;2023-09-30T13:13:39;7.82;;;3.47;;
25531;SDS011;13429;48.816;9.118;2023-09-30T13:16:05;8.68;;;3.97;;
25531;SDS011;13429;48.816;9.118;2023-09-30T13:18:35;11.25;;;4.70;;
25531;SDS011;13429;48.816;9.118;2023-09-30T13:21:01;8.77;;;4.13;;
25531;SDS011;13429;48.816;9.118;2023-09-30T13:23:27;6.97;;;3.33;;
25531;SDS011;13429;48.816;9.118;2023-09-30T13:25:53;13.25;;;5.15;;
25531;SDS011;13429;48.816;9.118;2023-09-30T13:28:20;11.48;;;4.80;;
25531;SDS011;13429;48.816;9.118;2023-09-30T13:30:46;8.32;;;3.70;;
25531;SDS011;13429;48.816;9.118;2023-09-30T13:33:13;10.10;;;3.42;;
25531;SDS011;13429;48.816;9.118;2023-09-30T13:35:39;11.05;;;4.15;;
25531;SDS011;13429;48.816;9.118;2023-09-30T13:38:05;8.90;;;3.95;;
25531;SDS011;13429;48.816;9.118;2023-09-30T13:40:31;11.05;;;4.72;;
25531;SDS011;13429;48.816;9.118;2023-09-30T13:42:57;8.45;;;3.60;;
25531;SDS011;13429;48.816;9.118;2023-09-30T13:45:25;7.70;;;3.58;;
25531;SDS011;13429;48.816;9.118;2023-09-30T13:47:53;11.60;;;4.57;;
25531;SDS011;13429;48.816;9.118;2023-09-30T13:50:19;9.15;;;3.72;;
25531;SDS011;13429;48.816;9.118;2023-09-30T13:52:45;11.18;;;4.13;;
25531;SDS011;13429;48.816;9.118;2023-09-30T13:55:11;8.93;;;3.63;;
25531;SDS011;13429;48.816;9.118;2023-09-30T13:57:43;6.70;;;3.38;;
25531;SDS011;13429;48.816;9.118;2023-09-30T14:00:10;9.30;;;3.78;;
25531;SDS011;13429;48.816;9.118;2023-09-30T14:02:36;10.85;;;4.18;;
25531;SDS011;13429;48.816;9.118;2023-09-30T14:05:03;11.63;;;3.72;;
25531;SDS011;13429;48.816;9.118;2023-09-30T14:07:30;11.90;;;4.07;;
25531;SDS011;13429;48.816;9.118;2023-09-30T14:09:56;7.60;;;4.05;;
25531;SDS011;13429;48.816;9.118;2023-09-30T14:12:22;8.05;;;3.58;;
25531;SDS011;13429;48.816;9.118;2023-09-30T14:14:48;9.80;;;4.13;;
25531;SDS011;13429;48.816;9.118;2023-09-30T14:17:16;12.82;;;4.82;;
25531;SDS011;13429;48.816;9.118;2023-09-30T14:19:42;6.88;;;3.88;;
25531;SDS011;13429;48.816;9.118;2023-09-30T14:22:08;9.30;;;4.55;;
25531;SDS011;13429;48.816;9.118;2023-09-30T14:24:35;9.38;;;4.03;;
25531;SDS011;13429;48.816;9.118;2023-09-30T14:27:02;7.60;;;3.90;;
25531;SDS011;13429;48.816;9.118;2023-09-30T14:29:28;9.45;;;4.13;;
25531;SDS011;13429;48.816;9.118;2023-09-30T14:31:54;8.73;;;4.45;;
25531;SDS011;13429;48.816;9.118;2023-09-30T14:34:21;9.45;;;3.58;;
25531;SDS011;13429;48.816;9.118;2023-09-30T14:36:47;12.98;;;3.45;;
25531;SDS011;13429;48.816;9.118;2023-09-30T14:39:14;10.77;;;4.55;;
25531;SDS011;13429;48.816;9.118;2023-09-30T14:41:43;9.30;;;3.90;;
25531;SDS011;13429;48.816;9.118;2023-09-30T14:44:10;8.27;;;3.85;;
25531;SDS011;13429;48.816;9.118;2023-09-30T14:46:37;6.43;;;3.70;;
25531;SDS011;13429;48.816;9.118;2023-09-30T14:49:03;7.50;;;3.83;;
25531;SDS011;13429;48.816;9.118;2023-09-30T14:51:31;11.80;;;4.97;;
25531;SDS011;13429;48.816;9.118;2023-09-30T14:53:57;6.68;;;3.10;;
25531;SDS011;13429;48.816;9.118;2023-09-30T14:56:23;10.27;;;3.80;;
25531;SDS011;13429;48.816;9.118;2023-09-30T14:58:49;8.18;;;3.22;;
25531;SDS011;13429;48.816;9.118;2023-09-30T15:01:15;9.60;;;3.80;;
25531;SDS011;13429;48.816;9.118;2023-09-30T15:03:44;12.07;;;4.32;;